sensor_id;sensor_type;location;lat;lon;timestamp;P1;P2;P0
74430;PMS7003;62863;52.062;23.764;2023-02-28T00:01:27;7;7;4.8
74430;PMS7003;62863;52.062;23.764;2023-02-28T00:06:51;8.6;7;4.8
74430;PMS7003;62863;52.062;23.764;2023-02-28T00:12:05;9;6.8;4.5
74430;PMS7003;62863;52.062;23.764;2023-02-28T00:16:27;8.8;7.4;4.6
74430;PMS7003;62863;52.062;23.764;2023-02-28T00:22:03;6.4;5.2;3.8
74430;PMS7003;62863;52.062;23.764;2023-02-28T00:26:15;7.5;7.5;4.5
74430;PMS7003;62863;52.062;23.764;2023-02-28T00:31:49;8.6;5.8;4.2
74430;PMS7003;62863;52.062;23.764;2023-02-28T00:37:03;7.5;6.8;5
74430;PMS7003;62863;52.062;23.764;2023-02-28T00:42:05;8.8;7.3;4.5
74430;PMS7003;62863;52.062;23.764;2023-02-28T00:46:41;10.2;8;5.6
74430;PMS7003;62863;52.062;23.764;2023-02-28T00:51:15;9;6.2;4.2
74430;PMS7003;62863;52.062;23.764;2023-02-28T00:56:51;8.6;7.4;5.8
74430;PMS7003;62863;52.062;23.764;2023-02-28T01:01:15;8.2;6.4;4.8
74430;PMS7003;62863;52.062;23.764;2023-02-28T01:07:05;8.5;7;4.5
74430;PMS7003;62863;52.062;23.764;2023-02-28T01:11:41;11;8;5
74430;PMS7003;62863;52.062;23.764;2023-02-28T01:16:39;8.6;7.4;4.6
74430;PMS7003;62863;52.062;23.764;2023-02-28T01:21:51;7.6;5.8;4.6
74430;PMS7003;62863;52.062;23.764;2023-02-28T01:26:29;9.3;8.3;5.8
74430;PMS7003;62863;52.062;23.764;2023-02-28T01:32:01;6.3;6.3;4.3
74430;PMS7003;62863;52.062;23.764;2023-02-28T01:36:39;5.7;5.7;4
74430;PMS7003;62863;52.062;23.764;2023-02-28T01:41:28;9.3;5.5;3.3
74430;PMS7003;62863;52.062;23.764;2023-02-28T01:46:17;8.4;6;3.4
74430;PMS7003;62863;52.062;23.764;2023-02-28T01:51:42;7.6;7;5
74430;PMS7003;62863;52.062;23.764;2023-02-28T01:57:04;8.3;6.5;4.8
74430;PMS7003;62863;52.062;23.764;2023-02-28T02:01:39;9.8;8.8;5.8
74430;PMS7003;62863;52.062;23.764;2023-02-28T02:06:15;7.3;6;3.7
74430;PMS7003;62863;52.062;23.764;2023-02-28T02:11:51;9.5;8;4.8
74430;PMS7003;62863;52.062;23.764;2023-02-28T02:16:42;8.3;6;4.5
74430;PMS7003;62863;52.062;23.764;2023-02-28T02:22:10;9.3;8.3;5.3
74430;PMS7003;62863;52.062;23.764;2023-02-28T02:26:33;5.8;4.8;3.3
74430;PMS7003;62863;52.062;23.764;2023-02-28T02:31:23;6.8;5.2;3.6
74430;PMS7003;62863;52.062;23.764;2023-02-28T02:36:26;7.2;5.4;3
74430;PMS7003;62863;52.062;23.764;2023-02-28T02:41:40;8.3;6.5;4.8
74430;PMS7003;62863;52.062;23.764;2023-02-28T02:47:06;6.3;4.8;3.3
74430;PMS7003;62863;52.062;23.764;2023-02-28T02:51:43;5.3;5.3;4
74430;PMS7003;62863;52.062;23.764;2023-02-28T02:56:39;6.7;6.3;4.7
74430;PMS7003;62863;52.062;23.764;2023-02-28T03:01:50;6;4;2.8
74430;PMS7003;62863;52.062;23.764;2023-02-28T03:06:27;6;4;3.2
74430;PMS7003;62863;52.062;23.764;2023-02-28T03:12:03;6;4.4;3.6
74430;PMS7003;62863;52.062;23.764;2023-02-28T03:16:44;6.4;5.6;3.8
74430;PMS7003;62863;52.062;23.764;2023-02-28T03:21:17;7.3;6.3;4
74430;PMS7003;62863;52.062;23.764;2023-02-28T03:26:52;3.8;3.3;2.8
74430;PMS7003;62863;52.062;23.764;2023-02-28T03:31:30;4.3;4.3;2.5
74430;PMS7003;62863;52.062;23.764;2023-02-28T03:37:02;4.7;4.3;3.3
74430;PMS7003;62863;52.062;23.764;2023-02-28T03:41:42;7;6;4.3
74430;PMS7003;62863;52.062;23.764;2023-02-28T03:46:28;8.3;7;5.5
74430;PMS7003;62863;52.062;23.764;2023-02-28T03:51:49;6;4.8;3.6
74430;PMS7003;62863;52.062;23.764;2023-02-28T03:56:16;5.2;4.4;2.2
74430;PMS7003;62863;52.062;23.764;2023-02-28T04:02:03;8;6.2;4.6
74430;PMS7003;62863;52.062;23.764;2023-02-28T04:06:15;13.3;11;7.3
74430;PMS7003;62863;52.062;23.764;2023-02-28T04:11:18;12.3;11;8
74430;PMS7003;62863;52.062;23.764;2023-02-28T04:16:38;11;8.5;6.5
74430;PMS7003;62863;52.062;23.764;2023-02-28T04:21:15;7;5;4
74430;PMS7003;62863;52.062;23.764;2023-02-28T04:27:03;10.7;7;4
74430;PMS7003;62863;52.062;23.764;2023-02-28T04:31:41;8;7;5.3
74430;PMS7003;62863;52.062;23.764;2023-02-28T04:36:27;6.8;5.8;4.8
74430;PMS7003;62863;52.062;23.764;2023-02-28T04:41:51;8.5;7.8;5.8
74430;PMS7003;62863;52.062;23.764;2023-02-28T04:46:27;7.8;6.2;3.8
74430;PMS7003;62863;52.062;23.764;2023-02-28T04:52:03;11.3;10.7;6.7
74430;PMS7003;62863;52.062;23.764;2023-02-28T04:56:37;11.5;10.5;7.5
74430;PMS7003;62863;52.062;23.764;2023-02-28T05:01:17;18;15;9.8
74430;PMS7003;62863;52.062;23.764;2023-02-28T05:06:47;15.8;14.6;10.2
74430;PMS7003;62863;52.062;23.764;2023-02-28T05:11:16;28.2;20.4;13.2
74430;PMS7003;62863;52.062;23.764;2023-02-28T05:17:03;23.3;20.7;13.7
74430;PMS7003;62863;52.062;23.764;2023-02-28T05:21:21;17.6;15;10.2
74430;PMS7003;62863;52.062;23.764;2023-02-28T05:27:03;13;10.6;7.8
74430;PMS7003;62863;52.062;23.764;2023-02-28T05:31:49;13;11.8;8.4
74430;PMS7003;62863;52.062;23.764;2023-02-28T05:36:15;19;14.4;10.4
74430;PMS7003;62863;52.062;23.764;2023-02-28T05:42:01;13;11;7.3
74430;PMS7003;62863;52.062;23.764;2023-02-28T05:46:39;12.4;10.4;7.2
74430;PMS7003;62863;52.062;23.764;2023-02-28T05:52:01;13.4;10.6;8.2
74430;PMS7003;62863;52.062;23.764;2023-02-28T05:56:37;9;7.5;4.8
74430;PMS7003;62863;52.062;23.764;2023-02-28T06:01:19;7.5;6.8;4.8
74430;PMS7003;62863;52.062;23.764;2023-02-28T06:07:01;6.6;6.2;4.4
74430;PMS7003;62863;52.062;23.764;2023-02-28T06:11:47;8.8;6.2;4.2
74430;PMS7003;62863;52.062;23.764;2023-02-28T06:17:01;12;9.4;6.2
74430;PMS7003;62863;52.062;23.764;2023-02-28T06:21:37;10.8;8;6
74430;PMS7003;62863;52.062;23.764;2023-02-28T06:26:15;10.6;8.6;5.2
74430;PMS7003;62863;52.062;23.764;2023-02-28T06:32:01;12.5;11.5;8
74430;PMS7003;62863;52.062;23.764;2023-02-28T06:36:25;11.5;11;8.3
74430;PMS7003;62863;52.062;23.764;2023-02-28T06:42:03;16.2;12.8;9.6
74430;PMS7003;62863;52.062;23.764;2023-02-28T06:46:49;26.8;19.8;12.8
74430;PMS7003;62863;52.062;23.764;2023-02-28T06:51:25;19;15.5;12
74430;PMS7003;62863;52.062;23.764;2023-02-28T06:57:01;17.2;13;8.8
74430;PMS7003;62863;52.062;23.764;2023-02-28T07:01:27;14.8;11;7
74430;PMS7003;62863;52.062;23.764;2023-02-28T07:07:01;11.8;9.8;7.5
74430;PMS7003;62863;52.062;23.764;2023-02-28T07:11:49;10.2;9.2;6.2
74430;PMS7003;62863;52.062;23.764;2023-02-28T07:16:15;12;10.3;7.3
74430;PMS7003;62863;52.062;23.764;2023-02-28T07:22:03;12;10.4;7.4
74430;PMS7003;62863;52.062;23.764;2023-02-28T07:26:16;13.3;11;8.7
74430;PMS7003;62863;52.062;23.764;2023-02-28T07:32:03;12.6;11;8
74430;PMS7003;62863;52.062;23.764;2023-02-28T07:36:52;13.2;10.4;7.6
74430;PMS7003;62863;52.062;23.764;2023-02-28T07:41:15;13;11;7.8
74430;PMS7003;62863;52.062;23.764;2023-02-28T07:47:01;11.6;8.8;6.6
74430;PMS7003;62863;52.062;23.764;2023-02-28T07:51:39;12.8;11.8;8.2
74430;PMS7003;62863;52.062;23.764;2023-02-28T07:57:01;17.2;13;8.2
74430;PMS7003;62863;52.062;23.764;2023-02-28T08:01:45;11.8;9.6;6.6
74430;PMS7003;62863;52.062;23.764;2023-02-28T08:06:16;12.8;10.4;7
74430;PMS7003;62863;52.062;23.764;2023-02-28T08:12:01;19.6;16.8;11.4
74430;PMS7003;62863;52.062;23.764;2023-02-28T08:16:37;15.6;14.6;10.8
74430;PMS7003;62863;52.062;23.764;2023-02-28T08:22:01;17.2;14.8;10.4
74430;PMS7003;62863;52.062;23.764;2023-02-28T08:26:47;18.8;15.5;11
74430;PMS7003;62863;52.062;23.764;2023-02-28T08:31:15;23.8;21;14
74430;PMS7003;62863;52.062;23.764;2023-02-28T08:37:01;41.2;33.4;22.4
74430;PMS7003;62863;52.062;23.764;2023-02-28T08:41:39;24.4;21.8;14.4
74430;PMS7003;62863;52.062;23.764;2023-02-28T08:46:47;17.4;14.6;9.8
74430;PMS7003;62863;52.062;23.764;2023-02-28T08:51:47;16.4;13.8;9.4
74430;PMS7003;62863;52.062;23.764;2023-02-28T08:56:47;15.8;11.8;7.8
74430;PMS7003;62863;52.062;23.764;2023-02-28T09:01:47;22;18.8;12
74430;PMS7003;62863;52.062;23.764;2023-02-28T09:06:39;20.8;17.4;12.4
74430;PMS7003;62863;52.062;23.764;2023-02-28T09:12:01;20.5;17.5;12.5
74430;PMS7003;62863;52.062;23.764;2023-02-28T09:16:45;16.8;14.3;10.3
74430;PMS7003;62863;52.062;23.764;2023-02-28T09:21:27;16.8;14.6;10.4
74430;PMS7003;62863;52.062;23.764;2023-02-28T09:26:47;19;17;11.8
74430;PMS7003;62863;52.062;23.764;2023-02-28T09:31:39;22.4;19;12.4
74430;PMS7003;62863;52.062;23.764;2023-02-28T09:37:01;22.3;18.3;12
74430;PMS7003;62863;52.062;23.764;2023-02-28T09:41:48;21;18.3;11.5
74430;PMS7003;62863;52.062;23.764;2023-02-28T09:46:35;23.8;19.2;13.6
74430;PMS7003;62863;52.062;23.764;2023-02-28T09:51:47;21;20;12.6
74430;PMS7003;62863;52.062;23.764;2023-02-28T09:56:28;15.6;13.8;9.6
74430;PMS7003;62863;52.062;23.764;2023-02-28T10:02:03;26.8;21;13.2
74430;PMS7003;62863;52.062;23.764;2023-02-28T10:06:48;22.5;17;11.3
74430;PMS7003;62863;52.062;23.764;2023-02-28T10:11:39;20.6;16.6;11.4
74430;PMS7003;62863;52.062;23.764;2023-02-28T10:16:50;25;22;13.8
74430;PMS7003;62863;52.062;23.764;2023-02-28T10:21:40;23.4;18.8;13.4
74430;PMS7003;62863;52.062;23.764;2023-02-28T10:27:00;19.2;15.8;11.2
74430;PMS7003;62863;52.062;23.764;2023-02-28T10:31:49;20.8;16.3;12
74430;PMS7003;62863;52.062;23.764;2023-02-28T10:36:37;19.6;16.8;11.6
74430;PMS7003;62863;52.062;23.764;2023-02-28T10:41:49;21;17.8;12
74430;PMS7003;62863;52.062;23.764;2023-02-28T10:46:27;17.8;13.3;9.8
74430;PMS7003;62863;52.062;23.764;2023-02-28T10:52:01;20.4;15;11
74430;PMS7003;62863;52.062;23.764;2023-02-28T10:56:25;13.8;13.2;9.8
74430;PMS7003;62863;52.062;23.764;2023-02-28T11:01:36;19;14.7;10.3
74430;PMS7003;62863;52.062;23.764;2023-02-28T11:06:47;15.6;12.6;8.8
74430;PMS7003;62863;52.062;23.764;2023-02-28T11:11:41;17.2;14;8.4
74430;PMS7003;62863;52.062;23.764;2023-02-28T11:16:47;18.2;15.4;10.8
74430;PMS7003;62863;52.062;23.764;2023-02-28T11:21:48;16.6;14.4;9.6
74430;PMS7003;62863;52.062;23.764;2023-02-28T11:26:41;21.8;18.2;12
74430;PMS7003;62863;52.062;23.764;2023-02-28T11:32:07;21.6;17.2;10.8
74430;PMS7003;62863;52.062;23.764;2023-02-28T11:36:41;18;14.8;10
74430;PMS7003;62863;52.062;23.764;2023-02-28T11:42:04;16.8;14;10.4
74430;PMS7003;62863;52.062;23.764;2023-02-28T11:46:20;17.4;14.8;10
74430;PMS7003;62863;52.062;23.764;2023-02-28T11:51:17;20;14.8;11
74430;PMS7003;62863;52.062;23.764;2023-02-28T11:56:50;20.4;14.2;9.6
74430;PMS7003;62863;52.062;23.764;2023-02-28T12:01:19;21.6;19;13.4
74430;PMS7003;62863;52.062;23.764;2023-02-28T12:07:00;20.2;18.8;12.2
74430;PMS7003;62863;52.062;23.764;2023-02-28T12:11:51;21.8;17;10.4
74430;PMS7003;62863;52.062;23.764;2023-02-28T12:16:42;19.4;15;10
74430;PMS7003;62863;52.062;23.764;2023-02-28T12:21:56;19.8;14.8;10.8
74430;PMS7003;62863;52.062;23.764;2023-02-28T12:26:51;17.8;12.4;8.2
74430;PMS7003;62863;52.062;23.764;2023-02-28T12:32:04;17.5;13.8;10.5
74430;PMS7003;62863;52.062;23.764;2023-02-28T12:36:51;16;13.8;10.2
74430;PMS7003;62863;52.062;23.764;2023-02-28T12:41:16;16;12.4;9.2
74430;PMS7003;62863;52.062;23.764;2023-02-28T12:46:51;23;17.8;12.4
74430;PMS7003;62863;52.062;23.764;2023-02-28T12:51:51;16.4;14.6;10.2
74430;PMS7003;62863;52.062;23.764;2023-02-28T12:57:06;15.4;13;7.6
74430;PMS7003;62863;52.062;23.764;2023-02-28T13:01:22;18.2;14.8;10
74430;PMS7003;62863;52.062;23.764;2023-02-28T13:06:59;21.2;18;13
74430;PMS7003;62863;52.062;23.764;2023-02-28T13:12:06;24;20;12.2
74430;PMS7003;62863;52.062;23.764;2023-02-28T13:16:48;21.8;19.2;12.2
74430;PMS7003;62863;52.062;23.764;2023-02-28T13:21:47;25.2;20.6;14.4
74430;PMS7003;62863;52.062;23.764;2023-02-28T13:27:10;21.8;19.6;13.8
74430;PMS7003;62863;52.062;23.764;2023-02-28T13:31:15;19.3;16.3;12
74430;PMS7003;62863;52.062;23.764;2023-02-28T13:37:36;16.6;15.6;10.2
74430;PMS7003;62863;52.062;23.764;2023-02-28T13:41:47;33.4;28.8;18.4
74430;PMS7003;62863;52.062;23.764;2023-02-28T13:47:55;21;19;13.2
74430;PMS7003;62863;52.062;23.764;2023-02-28T13:51:42;18.4;16.2;11.4
74430;PMS7003;62863;52.062;23.764;2023-02-28T13:56:31;41.6;33.4;22.6
74430;PMS7003;62863;52.062;23.764;2023-02-28T14:02:11;49;38.4;24.6
74430;PMS7003;62863;52.062;23.764;2023-02-28T14:06:27;22;18;13.2
74430;PMS7003;62863;52.062;23.764;2023-02-28T14:11:26;23.2;20.6;14.4
74430;PMS7003;62863;52.062;23.764;2023-02-28T14:16:43;20.8;17.6;11
74430;PMS7003;62863;52.062;23.764;2023-02-28T14:21:26;19;16.2;11.8
74430;PMS7003;62863;52.062;23.764;2023-02-28T14:27:11;16.6;15;11
74430;PMS7003;62863;52.062;23.764;2023-02-28T14:31:28;32.3;27.8;18.3
74430;PMS7003;62863;52.062;23.764;2023-02-28T14:36:49;26.6;22.2;15.2
74430;PMS7003;62863;52.062;23.764;2023-02-28T14:41:29;33.8;28.2;19.4
74430;PMS7003;62863;52.062;23.764;2023-02-28T14:46:28;23.6;19.6;13.8
74430;PMS7003;62863;52.062;23.764;2023-02-28T14:52:02;20.4;18.8;12.8
74430;PMS7003;62863;52.062;23.764;2023-02-28T14:56:26;28.2;24.6;16.4
74430;PMS7003;62863;52.062;23.764;2023-02-28T15:01:47;19.7;16;11.3
74430;PMS7003;62863;52.062;23.764;2023-02-28T15:06:39;22.5;19.8;14.5
74430;PMS7003;62863;52.062;23.764;2023-02-28T15:11:39;30.4;23.2;16.2
74430;PMS7003;62863;52.062;23.764;2023-02-28T15:17:05;31;26.4;17.6
74430;PMS7003;62863;52.062;23.764;2023-02-28T15:21:16;27.8;24;17.4
74430;PMS7003;62863;52.062;23.764;2023-02-28T15:26:50;38;32.4;20.8
74430;PMS7003;62863;52.062;23.764;2023-02-28T15:31:19;53.6;42;26.6
74430;PMS7003;62863;52.062;23.764;2023-02-28T15:36:28;57.4;46.4;29.8
74430;PMS7003;62863;52.062;23.764;2023-02-28T15:42:10;58.2;46;29
74430;PMS7003;62863;52.062;23.764;2023-02-28T15:46:29;55.5;45.3;29.8
74430;PMS7003;62863;52.062;23.764;2023-02-28T15:51:49;36.6;32.2;19.6
74430;PMS7003;62863;52.062;23.764;2023-02-28T15:56:42;26.4;20.2;13.6
74430;PMS7003;62863;52.062;23.764;2023-02-28T16:01:18;31.6;28.4;17
74430;PMS7003;62863;52.062;23.764;2023-02-28T16:07:04;25.4;22.6;14.8
74430;PMS7003;62863;52.062;23.764;2023-02-28T16:11:50;21.8;19;12.6
74430;PMS7003;62863;52.062;23.764;2023-02-28T16:16:50;27.4;22.4;16
74430;PMS7003;62863;52.062;23.764;2023-02-28T16:21:15;48.3;39.3;25.3
74430;PMS7003;62863;52.062;23.764;2023-02-28T16:26:27;73.8;56.5;32.8
74430;PMS7003;62863;52.062;23.764;2023-02-28T16:32:04;45.6;37.6;23.8
74430;PMS7003;62863;52.062;23.764;2023-02-28T16:36:39;73.8;58.2;36
74430;PMS7003;62863;52.062;23.764;2023-02-28T16:41:48;73.6;56.6;35
74430;PMS7003;62863;52.062;23.764;2023-02-28T16:46:15;43;37.4;25.2
74430;PMS7003;62863;52.062;23.764;2023-02-28T16:51:27;36.3;31;19.3
74430;PMS7003;62863;52.062;23.764;2023-02-28T16:57:04;39.4;33.6;20.2
74430;PMS7003;62863;52.062;23.764;2023-02-28T17:01:41;33;27.3;17
74430;PMS7003;62863;52.062;23.764;2023-02-28T17:06:49;30.2;24.4;16.8
74430;PMS7003;62863;52.062;23.764;2023-02-28T17:11:41;39;35.6;20.8
74430;PMS7003;62863;52.062;23.764;2023-02-28T17:16:31;34.2;29.8;19.6
74430;PMS7003;62863;52.062;23.764;2023-02-28T17:21:37;30.2;23.2;15.2
74430;PMS7003;62863;52.062;23.764;2023-02-28T17:26:29;54.5;43;25.3
74430;PMS7003;62863;52.062;23.764;2023-02-28T17:32:03;43.8;36.8;23.6
74430;PMS7003;62863;52.062;23.764;2023-02-28T17:37:03;27.8;22.6;15.8
74430;PMS7003;62863;52.062;23.764;2023-02-28T17:41:15;26.5;23.8;16
74430;PMS7003;62863;52.062;23.764;2023-02-28T17:46:27;41.8;32;20.6
74430;PMS7003;62863;52.062;23.764;2023-02-28T17:51:15;33.5;30.5;20.5
74430;PMS7003;62863;52.062;23.764;2023-02-28T17:57:03;26.8;23.4;16.8
74430;PMS7003;62863;52.062;23.764;2023-02-28T18:01:51;25.8;21;14.8
74430;PMS7003;62863;52.062;23.764;2023-02-28T18:06:30;25.4;20.4;14.2
74430;PMS7003;62863;52.062;23.764;2023-02-28T18:11:35;24;21.3;15.5
74430;PMS7003;62863;52.062;23.764;2023-02-28T18:16:29;25.4;22.6;15.8
74430;PMS7003;62863;52.062;23.764;2023-02-28T18:22:01;25.6;22.6;15.4
74430;PMS7003;62863;52.062;23.764;2023-02-28T18:26:41;20.6;16.8;13
74430;PMS7003;62863;52.062;23.764;2023-02-28T18:31:17;23.2;20.8;14.6
74430;PMS7003;62863;52.062;23.764;2023-02-28T18:36:37;30.4;27.2;18.8
74430;PMS7003;62863;52.062;23.764;2023-02-28T18:41:37;24.3;23.3;15.3
74430;PMS7003;62863;52.062;23.764;2023-02-28T18:47:03;31.6;25.4;16.8
74430;PMS7003;62863;52.062;23.764;2023-02-28T18:51:53;27.5;24.8;16.5
74430;PMS7003;62863;52.062;23.764;2023-02-28T18:56:16;24.8;20;12.8
74430;PMS7003;62863;52.062;23.764;2023-02-28T19:01:35;26;22;14.5
74430;PMS7003;62863;52.062;23.764;2023-02-28T19:06:37;22.2;17.6;11.8
74430;PMS7003;62863;52.062;23.764;2023-02-28T19:12:03;35.4;27.6;17.2
74430;PMS7003;62863;52.062;23.764;2023-02-28T19:16:53;33.8;27.4;18
74430;PMS7003;62863;52.062;23.764;2023-02-28T19:21:16;31.2;24.6;15.2
74430;PMS7003;62863;52.062;23.764;2023-02-28T19:26:27;20;18;12.6
74430;PMS7003;62863;52.062;23.764;2023-02-28T19:31:16;24.6;19.4;13.4
74430;PMS7003;62863;52.062;23.764;2023-02-28T19:37:03;28;24.8;16
74430;PMS7003;62863;52.062;23.764;2023-02-28T19:41:53;26.5;22.8;16.8
74430;PMS7003;62863;52.062;23.764;2023-02-28T19:46:37;33;27.4;17.4
74430;PMS7003;62863;52.062;23.764;2023-02-28T19:51:37;29.5;25.8;18
74430;PMS7003;62863;52.062;23.764;2023-02-28T19:56:16;27.5;23.3;15.3
74430;PMS7003;62863;52.062;23.764;2023-02-28T20:02:01;27;22.4;15.8
74430;PMS7003;62863;52.062;23.764;2023-02-28T20:06:53;30.8;24.4;16.6
74430;PMS7003;62863;52.062;23.764;2023-02-28T20:11:29;34.6;30;18
74430;PMS7003;62863;52.062;23.764;2023-02-28T20:16:51;40.2;34.4;20.2
74430;PMS7003;62863;52.062;23.764;2023-02-28T20:21:27;39.6;33.4;21
74430;PMS7003;62863;52.062;23.764;2023-02-28T20:27:01;37.3;33.5;22
74430;PMS7003;62863;52.062;23.764;2023-02-28T20:31:53;42;36.3;22.8
74430;PMS7003;62863;52.062;23.764;2023-02-28T20:36:23;52;46;29.8
74430;PMS7003;62863;52.062;23.764;2023-02-28T20:41:37;57.5;48.5;31
74430;PMS7003;62863;52.062;23.764;2023-02-28T20:46:15;54;46.4;29.2
74430;PMS7003;62863;52.062;23.764;2023-02-28T20:52:03;47;42.2;26.2
74430;PMS7003;62863;52.062;23.764;2023-02-28T20:56:51;45.3;36.7;27.3
74430;PMS7003;62863;52.062;23.764;2023-02-28T21:01:29;50;44;27.8
74430;PMS7003;62863;52.062;23.764;2023-02-28T21:06:38;57.8;48;30.2
74430;PMS7003;62863;52.062;23.764;2023-02-28T21:11:28;57.3;48.3;30.3
74430;PMS7003;62863;52.062;23.764;2023-02-28T21:17:03;47;40;25.2
74430;PMS7003;62863;52.062;23.764;2023-02-28T21:21:53;51.8;41.6;26
74430;PMS7003;62863;52.062;23.764;2023-02-28T21:27:02;47.4;38.8;26.2
74430;PMS7003;62863;52.062;23.764;2023-02-28T21:31:37;50.4;40.6;25.6
74430;PMS7003;62863;52.062;23.764;2023-02-28T21:36:28;43.2;36.8;23.8
74430;PMS7003;62863;52.062;23.764;2023-02-28T21:42:03;43.3;37.7;22
74430;PMS7003;62863;52.062;23.764;2023-02-28T21:46:51;43.6;35.8;22.6
74430;PMS7003;62863;52.062;23.764;2023-02-28T21:52:03;44.6;36;22.2
74430;PMS7003;62863;52.062;23.764;2023-02-28T21:56:37;49;41.4;27.4
74430;PMS7003;62863;52.062;23.764;2023-02-28T22:01:36;49.6;39.4;26.2
74430;PMS7003;62863;52.062;23.764;2023-02-28T22:07:03;47.4;42.8;26.6
74430;PMS7003;62863;52.062;23.764;2023-02-28T22:11:53;52.8;43.4;28
74430;PMS7003;62863;52.062;23.764;2023-02-28T22:17:01;49;43;27.4
74430;PMS7003;62863;52.062;23.764;2023-02-28T22:21:15;52;45.4;28.6
74430;PMS7003;62863;52.062;23.764;2023-02-28T22:26:16;60.4;48.4;31.6
74430;PMS7003;62863;52.062;23.764;2023-02-28T22:32:06;55;44.8;27.5
74430;PMS7003;62863;52.062;23.764;2023-02-28T22:36:53;49.3;43.8;27.3
74430;PMS7003;62863;52.062;23.764;2023-02-28T22:42:01;46.4;41.2;26
74430;PMS7003;62863;52.062;23.764;2023-02-28T22:46:24;44;38.6;24
74430;PMS7003;62863;52.062;23.764;2023-02-28T22:51:16;39.4;34.4;22.2
74430;PMS7003;62863;52.062;23.764;2023-02-28T22:56:59;39.4;29.6;18.4
74430;PMS7003;62863;52.062;23.764;2023-02-28T23:01:32;38.3;30.3;19.5
74430;PMS7003;62863;52.062;23.764;2023-02-28T23:07:03;33.8;30.6;20.6
74430;PMS7003;62863;52.062;23.764;2023-02-28T23:11:16;35.5;32.8;20.5
74430;PMS7003;62863;52.062;23.764;2023-02-28T23:16:28;32.5;26;14
74430;PMS7003;62863;52.062;23.764;2023-02-28T23:22:02;29;26;17
74430;PMS7003;62863;52.062;23.764;2023-02-28T23:26:50;35;30;19.2
74430;PMS7003;62863;52.062;23.764;2023-02-28T23:31:47;35.7;30;18.7
74430;PMS7003;62863;52.062;23.764;2023-02-28T23:36:36;30.7;24.7;17.3
74430;PMS7003;62863;52.062;23.764;2023-02-28T23:41:27;33.3;28;18.3
74430;PMS7003;62863;52.062;23.764;2023-02-28T23:46:59;36.4;30.8;19.6
74430;PMS7003;62863;52.062;23.764;2023-02-28T23:51:49;36;30.8;19.8
74430;PMS7003;62863;52.062;23.764;2023-02-28T23:56:59;45;42;24
